ADDS METAR Data INFO
IDs: Format: Raw Decoded Include TAF

Data at: 1117 UTC 17 Jul 2018

KCNU 171052Z AUTO 00000KT 10SM CLR 21/21 A3002 RMK AO2 SLP155 T02110206
KCNU 170952Z AUTO 11003KT 10SM CLR 21/21 A3003 RMK AO2 SLP154 T02110211
KCNU 170852Z AUTO 00000KT 10SM CLR 21/21 A3001 RMK AO2 SLP151 T02110206 58008
KCNU 170752Z AUTO 13003KT 10SM CLR 22/21 A3002 RMK AO2 SLP153 T02220211
KCNU 170652Z AUTO 14003KT 10SM CLR 23/21 A3004 RMK AO2 SLP160 T02280211
KCNU 170552Z AUTO 16005KT 10SM CLR 23/22 A3004 RMK AO2 SLP159 T02330217 10339 20228 403390222 52006
KCNU 170452Z AUTO 00000KT 10SM CLR 24/22 A3003 RMK AO2 SLP158 T02390217
KCNU 170352Z AUTO 00000KT 10SM CLR 24/22 A3003 RMK AO2 SLP156 T02440217
KCNU 170252Z AUTO 17005KT 10SM CLR 26/22 A3002 RMK AO2 SLP154 T02560217 53009
KCNU 170152Z AUTO 14005KT 10SM CLR 28/23 A3000 RMK AO2 SLP145 T02830228
KCNU 170052Z AUTO 07005KT 10SM CLR 33/22 A3000 RMK AO2 LTG DSNT S SLP143 T03280217
KCNU 162352Z AUTO 09004KT 10SM CLR 34/22 A2999 RMK AO2 SLP143 T03390217 10339 20311 55003
KCNU 162252Z AUTO 10SM CLR 33/22 A2999 RMK AO2 SLP142 T03330222
KCNU 162152Z AUTO 31005KT 10SM CLR 34/23 A2999 RMK AO2 SLP143 T03390233
KCNU 162052Z AUTO 34005KT 10SM CLR 32/23 A3000 RMK AO2 SLP147 T03170228 58018
KCNU 161952Z AUTO 36005KT 10SM CLR 33/23 A3002 RMK AO2 SLP151 T03280233
KCNU 161852Z AUTO 32006KT 10SM CLR 32/23 A3004 RMK AO2 SLP161 T03170228
KCNU 161752Z AUTO 33003KT 10SM CLR 32/23 A3006 RMK AO2 RAE1653B26E36 SLP165 P0000 60004 T03220233 10322 20233 55006
KCNU 161652Z AUTO 36006KT 10SM -RA CLR 29/23 A3005 RMK AO2 RAB27 SLP164 P0000 T02940233
KCNU 161552Z AUTO 33005KT 10SM FEW037 27/24 A3007 RMK AO2 RAE41 SLP170 P0000 T02720239
KCNU 161452Z AUTO 34005KT 10SM -RA FEW047 SCT065 BKN100 26/24 A3007 RMK AO2 RAB12 SLP172 P0004 60004 T02560239 53019
KCNU 161437Z AUTO 34009KT 4SM VCTS RA FEW027 BKN047 OVC110 26/23 A3007 RMK AO2 LTG DSNT NW RAB12 P0004 T02610233
KCNU 161352Z AUTO 00000KT 10SM SCT065 28/22 A3005 RMK AO2 LTG DSNT W AND NW SLP162 T02830222
KCNU 161252Z AUTO 00000KT 10SM CLR 26/22 A3003 RMK AO2 SLP157 T02610222
KCNU 161152Z AUTO 00000KT 10SM CLR 23/22 A3002 RMK AO2 SLP153 T02330222 10233 20222 53008
KCNU 161052Z AUTO 00000KT 10SM CLR 22/22 A3000 RMK AO2 SLP149 T02220217
KCNU 160952Z AUTO 35003KT 10SM CLR 23/22 A2999 RMK AO2 SLP144 T02280222
KCNU 160852Z AUTO 00000KT 10SM CLR 22/22 A2999 RMK AO2 SLP142 T02220222 55006
KCNU 160752Z AUTO 00000KT 10SM CLR 22/22 A2999 RMK AO2 SLP141 T02220222
KCNU 160652Z AUTO 00000KT 10SM CLR 23/22 A3000 RMK AO2 SLP144 T02280222
KCNU 160552Z AUTO 00000KT 10SM CLR 23/23 A3001 RMK AO2 SLP148 T02330228 10283 20228 403560228 50006
KCNU 160452Z AUTO 00000KT 10SM CLR 23/23 A3002 RMK AO2 SLP151 T02330228
KCNU 160352Z AUTO 00000KT 10SM CLR 23/23 A3002 RMK AO2 SLP152 T02330228
KCNU 160252Z AUTO 00000KT 10SM CLR 24/23 A2999 RMK AO2 SLP143 T02390228 53015
KCNU 160152Z AUTO 01003KT 10SM CLR 26/23 A2997 RMK AO2 SLP136 T02560233
KCNU 160052Z AUTO 00000KT 10SM CLR 28/22 A2995 RMK AO2 SLP131 T02780222
KCNU 152352Z AUTO 22005KT 10SM CLR 28/22 A2994 RMK AO2 LTG DSNT E RAE11 TSE13 SLP127 P0000 60000 T02780217 10356 20256 58002